createdAt,value
2019-02-20T09:46:08.465Z,91.99
2019-02-20T09:47:08.493Z,91.99
2019-02-20T09:48:08.448Z,92.32
2019-02-20T09:49:08.438Z,92.70
2019-02-20T09:50:08.431Z,92.22
2019-02-20T09:51:08.422Z,92.70
2019-02-20T09:52:08.411Z,92.03
2019-02-20T09:53:08.722Z,92.79
2019-02-20T09:54:08.401Z,91.94
2019-02-20T09:55:08.391Z,92.13
2019-02-20T09:56:08.402Z,92.79
2019-02-20T09:57:08.401Z,92.27
2019-02-20T09:58:08.371Z,92.18
2019-02-20T09:59:08.363Z,91.79
2019-02-20T10:00:08.355Z,91.89
2019-02-20T10:01:08.354Z,91.79
2019-02-20T17:39:28.438Z,89.12
2019-02-20T17:40:28.429Z,88.64
2019-02-20T17:41:28.422Z,89.31
2019-02-20T18:44:25.233Z,89.26
2019-02-20T18:45:25.213Z,89.26
2019-02-20T18:46:25.211Z,89.46
2019-02-20T18:47:25.204Z,88.98
2019-02-20T18:48:25.232Z,89.46
2019-02-20T18:49:25.182Z,89.07
2019-02-20T18:50:25.177Z,89.07
2019-02-20T18:51:25.172Z,89.26
2019-02-20T18:52:25.163Z,89.46
2019-02-20T18:53:25.157Z,89.17
2019-02-20T18:54:25.155Z,89.26
2019-02-20T18:55:25.143Z,89.17
2019-02-20T18:56:25.148Z,89.55
2019-02-20T18:57:25.130Z,89.03
2019-02-20T18:58:33.477Z,89.26
2019-02-20T18:59:25.120Z,89.17
2019-02-20T19:00:25.119Z,88.93
2019-02-20T19:01:25.107Z,88.93
2019-02-20T19:02:25.115Z,89.13
2019-02-20T19:03:25.111Z,89.22
2019-02-20T19:04:25.095Z,89.22
2019-02-20T19:05:25.085Z,89.22
2019-02-20T19:06:25.077Z,89.41
2019-02-20T19:07:25.081Z,89.22
2019-02-20T19:08:25.065Z,89.51
2019-02-20T19:09:25.060Z,89.41
2019-02-20T19:10:25.063Z,89.89
2019-02-20T19:11:25.052Z,89.13
2019-02-20T19:12:25.045Z,89.41
2019-02-20T19:13:25.040Z,89.22
2019-02-20T19:14:25.052Z,89.32
2019-02-20T19:15:25.042Z,89.32
2019-02-20T19:16:25.040Z,89.84
2019-02-20T19:17:25.024Z,89.32
2019-02-20T19:18:25.013Z,89.03
2019-02-20T19:19:25.169Z,89.03
2019-02-20T19:20:25.013Z,89.13
2019-02-20T19:21:24.994Z,89.22
2019-02-20T19:22:27.677Z,89.41
2019-02-20T19:23:24.993Z,89.22
2019-02-20T19:24:24.981Z,89.51
2019-02-20T19:25:24.990Z,89.51
2019-02-20T19:26:24.984Z,89.70
2019-02-20T19:27:25.019Z,89.89
2019-02-20T19:28:24.957Z,89.22
2019-02-20T19:29:24.945Z,89.89
2019-02-20T19:30:24.953Z,89.89
2019-02-20T19:31:24.945Z,89.32
2019-02-20T19:32:24.958Z,89.89
2019-02-20T19:33:24.924Z,89.98
2019-02-20T19:34:24.923Z,89.03
2019-02-20T19:35:24.916Z,89.89
2019-02-20T19:36:25.115Z,89.70
2019-02-20T19:37:24.906Z,89.98
2019-02-20T19:38:24.922Z,89.79
2019-02-20T19:39:26.946Z,89.98
2019-02-20T19:40:24.888Z,89.22
2019-02-20T19:41:24.880Z,89.79
2019-02-20T19:42:26.061Z,89.89
2019-02-20T19:43:27.647Z,89.79
2019-02-20T19:44:24.899Z,89.79
2019-02-20T19:45:24.860Z,89.89
2019-02-20T19:46:24.869Z,89.03
2019-02-20T19:47:24.849Z,90.17
2019-02-20T19:48:24.846Z,89.32
2019-02-20T19:49:24.840Z,89.79
2019-02-20T19:50:24.845Z,89.98
2019-02-20T19:51:24.859Z,89.98
2019-02-20T19:52:24.854Z,89.70
